createdAt,value
2018-05-14T00:00:34.569Z,17.01
2018-05-14T00:01:37.907Z,17.03
2018-05-14T00:02:41.266Z,17.02
2018-05-14T00:03:44.629Z,17.00
2018-05-14T00:04:47.931Z,16.98
2018-05-14T00:05:51.306Z,16.96
2018-05-14T00:06:54.664Z,16.95
2018-05-14T00:07:58.094Z,16.95
2018-05-14T00:09:01.428Z,16.91
2018-05-14T00:10:04.760Z,16.90
2018-05-14T00:11:08.107Z,16.90
2018-05-14T00:12:11.418Z,16.90
2018-05-14T00:13:15.201Z,16.89
2018-05-14T00:14:18.511Z,16.89
2018-05-14T00:15:21.858Z,16.88
2018-05-14T00:16:25.347Z,16.87
2018-05-14T00:17:28.650Z,16.87
2018-05-14T00:18:31.970Z,16.87
2018-05-14T00:19:35.337Z,16.87
2018-05-14T00:20:38.661Z,16.88
2018-05-14T00:21:42.002Z,16.88
2018-05-14T00:22:45.353Z,16.88
2018-05-14T00:23:48.728Z,16.88
2018-05-14T00:24:52.054Z,16.89
2018-05-14T00:25:55.404Z,16.89
2018-05-14T00:26:58.750Z,16.89
2018-05-14T00:28:02.085Z,16.90
2018-05-14T00:29:05.415Z,16.91
2018-05-14T00:30:08.962Z,16.90
2018-05-14T00:31:12.288Z,16.89
2018-05-14T00:32:15.646Z,16.88
2018-05-14T00:33:18.968Z,16.88
2018-05-14T00:34:22.287Z,16.89
2018-05-14T00:35:25.618Z,16.89
2018-05-14T00:36:28.955Z,16.89
2018-05-14T00:37:32.315Z,16.91
2018-05-14T00:38:35.667Z,16.91
2018-05-14T00:39:38.987Z,16.92
2018-05-14T00:40:42.315Z,16.93
2018-05-14T00:41:45.638Z,16.95
2018-05-14T00:42:49.117Z,16.96
2018-05-14T00:43:52.638Z,16.93
2018-05-14T00:44:55.987Z,16.93
2018-05-14T00:45:59.319Z,16.92
2018-05-14T00:47:02.671Z,16.93
2018-05-14T00:48:06.014Z,16.94
2018-05-14T00:49:09.339Z,16.94
2018-05-14T00:50:12.677Z,16.93
2018-05-14T00:51:15.995Z,16.94
2018-05-14T00:52:19.321Z,16.94
2018-05-14T00:53:22.671Z,16.94
2018-05-14T00:54:25.993Z,16.95
2018-05-14T00:55:29.311Z,16.96
2018-05-14T00:56:32.650Z,16.95
2018-05-14T00:57:36.058Z,16.95
2018-05-14T00:58:39.607Z,16.95
2018-05-14T00:59:42.955Z,16.95
2018-05-14T01:00:46.273Z,16.96
2018-05-14T01:01:49.595Z,16.97
2018-05-14T01:02:52.921Z,16.97
2018-05-14T01:03:56.295Z,16.97
2018-05-14T01:04:59.626Z,16.97
2018-05-14T01:06:02.948Z,16.98
2018-05-14T01:07:06.273Z,16.99
2018-05-14T01:08:09.603Z,16.99
2018-05-14T01:09:12.952Z,16.99
2018-05-14T01:10:16.279Z,17.00
2018-05-14T01:11:19.610Z,17.02
2018-05-14T01:12:22.945Z,17.03
2018-05-14T01:13:26.280Z,17.04
2018-05-14T01:14:29.666Z,17.03
2018-05-14T01:15:33.001Z,17.03
2018-05-14T01:16:36.343Z,17.03
2018-05-14T01:17:39.668Z,17.03
2018-05-14T01:18:42.991Z,17.02
2018-05-14T01:19:46.451Z,17.02
2018-05-14T01:20:49.786Z,17.01
2018-05-14T01:21:53.120Z,17.01
2018-05-14T01:22:56.506Z,17.01
2018-05-14T01:23:59.834Z,17.01
2018-05-14T01:25:03.422Z,17.01
2018-05-14T01:26:06.740Z,17.00
2018-05-14T01:27:10.071Z,16.99
2018-05-14T01:28:13.505Z,16.99
2018-05-14T01:29:16.752Z,17.00
2018-05-14T01:30:20.253Z,16.99
2018-05-14T01:31:23.581Z,17.00
2018-05-14T01:32:26.900Z,17.00
2018-05-14T01:33:30.239Z,17.01
2018-05-14T01:34:33.570Z,17.03
2018-05-14T01:35:36.932Z,17.03
2018-05-14T01:36:40.261Z,17.05
2018-05-14T01:37:43.586Z,17.05
2018-05-14T01:38:46.917Z,17.06
2018-05-14T01:39:50.241Z,17.06
2018-05-14T01:40:53.614Z,17.07
2018-05-14T01:41:57.088Z,17.09
2018-05-14T01:43:00.402Z,17.07
2018-05-14T01:44:03.718Z,17.07
2018-05-14T01:45:07.047Z,17.08
2018-05-14T01:46:10.405Z,17.08
2018-05-14T01:47:13.734Z,17.10
2018-05-14T01:48:17.077Z,17.11
2018-05-14T01:49:20.411Z,17.11
2018-05-14T01:50:23.748Z,17.12
2018-05-14T01:51:32.610Z,17.12
2018-05-14T01:52:35.941Z,17.11
2018-05-14T01:53:39.299Z,17.12
2018-05-14T01:54:42.667Z,17.12
2018-05-14T01:55:45.988Z,17.11
2018-05-14T01:56:49.334Z,17.11
2018-05-14T01:57:52.691Z,17.11
2018-05-14T01:58:56.030Z,17.10
2018-05-14T01:59:59.400Z,17.10
2018-05-14T02:01:02.730Z,17.09
2018-05-14T02:02:06.074Z,17.10
2018-05-14T02:03:09.527Z,17.10
2018-05-14T02:04:12.856Z,17.12
2018-05-14T02:05:16.186Z,17.12
2018-05-14T02:06:19.494Z,17.11
2018-05-14T02:07:22.861Z,17.11
2018-05-14T02:08:26.181Z,17.11
2018-05-14T02:09:29.499Z,17.12
2018-05-14T02:10:32.850Z,17.11
2018-05-14T02:11:36.179Z,17.12
2018-05-14T02:12:39.551Z,17.12
2018-05-14T02:13:42.870Z,17.12
2018-05-14T02:14:46.198Z,17.13
2018-05-14T02:15:49.528Z,17.14
2018-05-14T02:16:52.851Z,17.14
2018-05-14T02:17:56.210Z,17.15
2018-05-14T02:18:59.510Z,17.15
2018-05-14T02:20:02.844Z,17.15
2018-05-14T02:21:06.204Z,17.15
2018-05-14T02:22:09.506Z,17.16
2018-05-14T02:23:12.875Z,17.17
2018-05-14T02:24:16.227Z,17.17
2018-05-14T02:25:19.689Z,17.17
2018-05-14T02:26:23.011Z,17.17
2018-05-14T02:27:26.330Z,17.17
2018-05-14T02:28:29.674Z,17.18
2018-05-14T02:29:33.002Z,17.18
2018-05-14T02:30:36.608Z,17.18
2018-05-14T02:31:39.923Z,17.18
2018-05-14T02:32:43.244Z,17.18
2018-05-14T02:33:46.593Z,17.18
2018-05-14T02:34:49.929Z,17.16
2018-05-14T02:35:53.239Z,17.16
2018-05-14T02:36:56.567Z,17.16
2018-05-14T02:37:59.910Z,17.15
2018-05-14T02:39:03.275Z,17.15
2018-05-14T02:40:06.603Z,17.15
2018-05-14T02:41:09.919Z,17.16
2018-05-14T02:42:13.244Z,17.16
2018-05-14T02:43:16.628Z,17.16
2018-05-14T02:44:19.978Z,17.17
2018-05-14T02:45:23.304Z,17.17
2018-05-14T02:46:26.623Z,17.17
2018-05-14T02:47:29.964Z,17.18
2018-05-14T02:48:33.288Z,17.17
2018-05-14T02:49:36.663Z,17.17
2018-05-14T02:50:40.011Z,17.17
2018-05-14T02:51:43.336Z,17.18
2018-05-14T02:52:46.663Z,17.17
2018-05-14T02:53:49.983Z,17.18
2018-05-14T02:54:53.431Z,17.18
2018-05-14T02:55:56.752Z,17.18
2018-05-14T02:57:00.085Z,17.18
2018-05-14T02:58:03.491Z,17.17
2018-05-14T02:59:06.848Z,17.16
2018-05-14T03:00:10.205Z,17.14
2018-05-14T03:01:13.536Z,17.13
2018-05-14T03:02:16.867Z,17.13
2018-05-14T03:03:20.207Z,17.13
2018-05-14T03:04:23.618Z,17.14
2018-05-14T03:05:26.903Z,17.13
2018-05-14T03:06:30.228Z,17.12
2018-05-14T03:07:33.559Z,17.11
2018-05-14T03:08:36.977Z,17.10
2018-05-14T03:09:40.319Z,17.09
2018-05-14T03:10:43.672Z,17.09
2018-05-14T03:11:46.991Z,17.09
2018-05-14T03:12:50.327Z,17.09
2018-05-14T03:13:53.634Z,17.10
2018-05-14T03:14:56.978Z,17.11
2018-05-14T03:16:00.373Z,17.12
2018-05-14T03:17:03.699Z,17.11
2018-05-14T03:18:07.028Z,17.12
2018-05-14T03:19:10.351Z,17.12
2018-05-14T03:20:13.679Z,17.12
2018-05-14T03:21:17.050Z,17.11
2018-05-14T03:22:20.371Z,17.12
2018-05-14T03:23:23.716Z,17.12
2018-05-14T03:24:27.063Z,17.12
2018-05-14T03:25:30.391Z,17.12
2018-05-14T03:26:33.749Z,17.12
2018-05-14T03:27:37.085Z,17.12
2018-05-14T03:28:40.424Z,17.11
2018-05-14T03:29:43.754Z,17.11
2018-05-14T03:30:47.242Z,17.10
2018-05-14T03:31:50.603Z,17.10
2018-05-14T03:32:53.932Z,17.09
2018-05-14T03:33:57.255Z,17.09
2018-05-14T03:35:00.586Z,17.07
2018-05-14T03:36:03.922Z,17.06
2018-05-14T03:37:07.626Z,17.06
2018-05-14T03:38:11.001Z,17.04
2018-05-14T03:39:14.341Z,17.04
2018-05-14T03:40:17.823Z,17.05
2018-05-14T03:41:21.225Z,17.06
2018-05-14T03:42:24.598Z,17.03
2018-05-14T03:43:27.939Z,17.02
2018-05-14T03:44:31.275Z,17.02
2018-05-14T03:45:34.582Z,17.03
2018-05-14T03:46:38.006Z,17.03
2018-05-14T03:47:41.350Z,17.03
2018-05-14T03:48:44.666Z,17.04
2018-05-14T03:49:48.006Z,17.04
2018-05-14T03:50:51.331Z,17.04
2018-05-14T03:51:54.651Z,17.05
2018-05-14T03:52:58.001Z,17.04
2018-05-14T03:54:01.330Z,17.03
2018-05-14T03:55:04.667Z,17.03
2018-05-14T03:56:08.026Z,17.02
2018-05-14T03:57:11.335Z,17.02
2018-05-14T03:58:26.518Z,17.01
2018-05-14T03:59:41.695Z,16.96
2018-05-14T04:00:56.829Z,16.95
2018-05-14T04:02:22.727Z,16.93
2018-05-14T04:03:37.737Z,16.89
2018-05-14T04:04:52.770Z,16.89
2018-05-14T04:07:31.333Z,16.87
2018-05-14T04:08:34.663Z,16.90
2018-05-14T04:09:38.024Z,16.92
2018-05-14T04:10:41.353Z,16.93
2018-05-14T04:11:44.673Z,16.93
2018-05-14T04:12:48.022Z,16.94
2018-05-14T04:13:51.340Z,16.96
2018-05-14T04:14:54.702Z,16.98
2018-05-14T04:15:58.271Z,16.97
2018-05-14T04:17:01.661Z,16.98
2018-05-14T04:18:04.999Z,16.99
2018-05-14T04:19:08.347Z,16.99
2018-05-14T04:20:11.805Z,17.00
2018-05-14T04:21:15.046Z,17.00
2018-05-14T04:22:18.356Z,17.00
2018-05-14T04:23:21.676Z,17.01
2018-05-14T04:24:25.009Z,17.00
2018-05-14T04:25:28.356Z,17.01
2018-05-14T04:26:31.669Z,17.00
2018-05-14T04:27:35.019Z,17.00
2018-05-14T04:28:38.349Z,16.99
2018-05-14T04:29:41.699Z,16.99
2018-05-14T04:30:45.056Z,16.99
2018-05-14T04:31:48.466Z,16.99
2018-05-14T04:32:51.787Z,16.97
2018-05-14T04:33:55.112Z,16.96
2018-05-14T04:34:58.458Z,16.95
2018-05-14T04:36:01.942Z,16.94
2018-05-14T04:37:05.258Z,16.93
2018-05-14T04:38:08.622Z,16.92
2018-05-14T04:39:11.943Z,16.92
2018-05-14T04:40:15.273Z,16.92
2018-05-14T04:41:18.637Z,16.92
2018-05-14T04:42:21.962Z,16.93
2018-05-14T04:43:25.324Z,16.93
2018-05-14T04:44:28.635Z,16.94
2018-05-14T04:45:32.000Z,16.94
2018-05-14T04:46:35.358Z,16.94
2018-05-14T04:47:38.709Z,16.93
2018-05-14T04:48:42.030Z,16.94
2018-05-14T04:49:45.345Z,16.94
2018-05-14T04:50:48.681Z,16.95
2018-05-14T04:51:52.038Z,16.96
2018-05-14T04:52:55.392Z,16.95
2018-05-14T04:53:58.719Z,16.95
2018-05-14T04:55:02.079Z,16.95
2018-05-14T04:56:05.383Z,16.96
2018-05-14T04:57:08.799Z,16.96
2018-05-14T04:58:12.130Z,16.97
2018-05-14T04:59:15.522Z,16.95
2018-05-14T05:00:18.843Z,16.96
2018-05-14T05:01:22.142Z,16.96
2018-05-14T05:02:25.489Z,16.97
2018-05-14T05:03:28.814Z,16.99
2018-05-14T05:04:32.382Z,17.00
2018-05-14T05:05:35.726Z,17.00
2018-05-14T05:06:39.079Z,17.01
2018-05-14T05:07:42.674Z,17.01
2018-05-14T05:08:46.012Z,17.01
2018-05-14T05:09:49.338Z,17.01
2018-05-14T05:10:52.869Z,17.02
2018-05-14T05:11:56.349Z,17.03
2018-05-14T05:12:59.707Z,17.03
2018-05-14T05:14:03.039Z,17.02
2018-05-14T05:15:06.364Z,17.02
2018-05-14T05:16:09.732Z,17.03
2018-05-14T05:17:13.355Z,17.03
2018-05-14T05:18:16.703Z,17.04
2018-05-14T05:19:20.083Z,17.04
2018-05-14T05:20:23.417Z,17.05
2018-05-14T05:21:26.747Z,17.06
2018-05-14T05:22:30.091Z,17.09
2018-05-14T05:23:33.494Z,17.09
2018-05-14T05:24:36.895Z,17.10
2018-05-14T05:25:40.231Z,17.10
2018-05-14T05:26:43.567Z,17.11
2018-05-14T05:27:46.894Z,17.10
2018-05-14T05:28:50.274Z,17.10
2018-05-14T05:29:53.611Z,17.10
2018-05-14T05:30:56.930Z,17.09
2018-05-14T05:32:00.506Z,17.10
2018-05-14T05:33:03.851Z,17.11
2018-05-14T05:34:07.226Z,17.12
2018-05-14T05:35:10.555Z,17.13
2018-05-14T05:36:14.131Z,17.15
2018-05-14T05:37:17.471Z,17.16
2018-05-14T05:38:20.803Z,17.19
2018-05-14T05:39:24.170Z,17.19
2018-05-14T05:40:27.733Z,17.21
2018-05-14T05:41:31.060Z,17.23
2018-05-14T05:42:34.532Z,17.25
2018-05-14T05:43:37.868Z,17.26
2018-05-14T05:44:41.216Z,17.27
2018-05-14T05:45:44.562Z,17.28
2018-05-14T05:46:47.899Z,17.29
2018-05-14T05:47:51.284Z,17.30
2018-05-14T05:48:54.610Z,17.31
2018-05-14T05:49:57.968Z,17.32
2018-05-14T05:51:01.328Z,17.32
2018-05-14T05:52:04.736Z,17.32
2018-05-14T05:53:08.065Z,17.32
2018-05-14T05:54:11.392Z,17.32
2018-05-14T05:55:14.787Z,17.34
2018-05-14T05:56:18.114Z,17.36
2018-05-14T05:57:21.578Z,17.36
2018-05-14T05:58:24.907Z,17.37
2018-05-14T05:59:28.247Z,17.39
2018-05-14T06:00:31.606Z,17.40
2018-05-14T06:01:34.926Z,17.39
2018-05-14T06:02:38.243Z,17.39
2018-05-14T06:03:41.564Z,17.39
2018-05-14T06:04:44.900Z,17.40
2018-05-14T06:05:48.262Z,17.41
2018-05-14T06:06:51.643Z,17.41
2018-05-14T06:07:54.943Z,17.43
2018-05-14T06:08:58.362Z,17.44
2018-05-14T06:10:01.707Z,17.44
2018-05-14T06:11:05.062Z,17.45
2018-05-14T06:12:08.475Z,17.47
2018-05-14T06:13:11.815Z,17.49
2018-05-14T06:14:15.139Z,17.50
2018-05-14T06:15:18.462Z,17.52
2018-05-14T06:16:21.867Z,17.53
2018-05-14T06:17:25.199Z,17.52
2018-05-14T06:18:28.541Z,17.52
2018-05-14T06:19:31.927Z,17.53
2018-05-14T06:20:35.421Z,17.54
2018-05-14T06:21:38.866Z,17.54
2018-05-14T06:22:42.200Z,17.55
2018-05-14T06:23:45.613Z,17.57
2018-05-14T06:24:48.895Z,17.58
2018-05-14T06:25:52.218Z,17.59
2018-05-14T06:26:55.587Z,17.60
2018-05-14T06:27:59.001Z,17.62
2018-05-14T06:29:02.325Z,17.64
2018-05-14T06:30:05.660Z,17.65
2018-05-14T06:31:08.969Z,17.66
2018-05-14T06:32:12.473Z,17.67
2018-05-14T06:33:15.803Z,17.68
2018-05-14T06:34:19.129Z,17.69
2018-05-14T06:35:22.451Z,17.70
2018-05-14T06:36:25.777Z,17.72
2018-05-14T06:37:29.117Z,17.73
2018-05-14T06:38:32.497Z,17.74
2018-05-14T06:40:45.590Z,17.75
2018-05-14T06:41:48.875Z,17.76
2018-05-14T06:42:52.227Z,17.78
2018-05-14T06:43:55.560Z,17.79
2018-05-14T06:44:58.880Z,17.81
2018-05-14T06:46:02.202Z,17.83
2018-05-14T06:47:05.625Z,17.84
2018-05-14T06:48:09.233Z,17.86
2018-05-14T06:49:12.634Z,17.89
2018-05-14T06:50:16.211Z,17.92
2018-05-14T06:51:19.537Z,17.96
2018-05-14T06:52:22.871Z,17.97
2018-05-14T06:53:26.223Z,17.99
2018-05-14T06:54:29.538Z,17.99
2018-05-14T06:55:32.970Z,18.00
2018-05-14T06:56:36.283Z,18.02
2018-05-14T06:57:39.606Z,18.03
2018-05-14T06:58:42.957Z,18.05
2018-05-14T06:59:46.284Z,18.05
2018-05-14T07:00:49.663Z,18.07
2018-05-14T07:01:53.023Z,18.08
2018-05-14T07:02:56.344Z,18.10
2018-05-14T07:03:59.715Z,18.13
2018-05-14T07:05:03.035Z,18.16
2018-05-14T07:06:06.351Z,18.18
2018-05-14T07:07:09.675Z,18.20
2018-05-14T07:08:13.006Z,18.22
2018-05-14T07:09:16.364Z,18.25
2018-05-14T07:10:19.723Z,18.26
2018-05-14T07:11:23.971Z,18.28
2018-05-14T07:12:27.242Z,18.30
2018-05-14T07:13:30.567Z,18.32
2018-05-14T07:14:33.916Z,18.33
2018-05-14T07:15:37.255Z,18.36
2018-05-14T07:16:40.568Z,18.38
2018-05-14T07:17:43.903Z,18.42
2018-05-14T07:18:47.219Z,18.44
2018-05-14T07:19:50.577Z,18.47
2018-05-14T07:20:53.934Z,18.52
2018-05-14T07:21:57.253Z,18.56
2018-05-14T07:23:00.586Z,18.61
2018-05-14T07:24:03.904Z,18.66
2018-05-14T07:25:07.261Z,18.70
2018-05-14T07:26:10.729Z,18.74
2018-05-14T07:27:13.956Z,18.79
2018-05-14T07:28:17.312Z,18.82
2018-05-14T07:29:20.639Z,18.88
2018-05-14T07:30:23.983Z,18.96
2018-05-14T07:31:27.311Z,19.03
2018-05-14T07:32:30.823Z,19.07
2018-05-14T07:33:34.400Z,19.10
2018-05-14T07:34:37.742Z,19.11
2018-05-14T07:35:41.084Z,19.13
2018-05-14T07:36:44.509Z,19.15
2018-05-14T07:37:47.841Z,19.19
2018-05-14T07:38:51.163Z,19.20
2018-05-14T07:39:54.503Z,19.22
2018-05-14T07:40:57.837Z,19.25
2018-05-14T07:42:01.187Z,19.29
2018-05-14T07:43:04.516Z,19.33
2018-05-14T07:44:07.838Z,19.41
2018-05-14T07:45:11.178Z,19.51
2018-05-14T07:46:14.524Z,19.56
2018-05-14T07:47:17.843Z,19.59
2018-05-14T07:48:21.611Z,19.63
2018-05-14T07:49:24.932Z,19.67
2018-05-14T07:50:28.596Z,19.71
2018-05-14T07:51:31.944Z,19.75
2018-05-14T07:52:35.395Z,19.77
2018-05-14T07:53:38.741Z,19.80
2018-05-14T07:54:42.348Z,19.81
2018-05-14T07:55:45.663Z,19.80
2018-05-14T07:56:49.007Z,19.80
2018-05-14T07:57:52.322Z,19.79
2018-05-14T07:58:55.635Z,19.81
2018-05-14T07:59:58.959Z,19.86
2018-05-14T08:01:02.274Z,19.96
2018-05-14T08:02:05.627Z,20.05
2018-05-14T08:03:08.933Z,20.14
2018-05-14T08:04:12.251Z,20.22
2018-05-14T08:05:15.575Z,20.28
2018-05-14T08:06:19.043Z,20.32
2018-05-14T08:07:22.257Z,20.33
2018-05-14T08:08:25.565Z,20.32
2018-05-14T08:09:28.892Z,20.31
2018-05-14T08:10:32.242Z,20.33
2018-05-14T08:11:35.567Z,20.36
2018-05-14T08:12:38.899Z,20.40
2018-05-14T08:13:42.211Z,20.44
2018-05-14T08:14:45.560Z,20.45
2018-05-14T08:15:48.877Z,20.48
2018-05-14T08:16:52.190Z,20.51
2018-05-14T08:17:55.532Z,20.56
2018-05-14T08:18:58.883Z,20.62
2018-05-14T08:20:02.205Z,20.63
2018-05-14T08:21:05.522Z,20.64
2018-05-14T08:22:08.851Z,20.64
2018-05-14T08:23:12.180Z,20.66
2018-05-14T08:24:15.495Z,20.67
2018-05-14T08:25:18.834Z,20.70
2018-05-14T08:26:22.152Z,20.71
2018-05-14T08:27:25.515Z,20.72
2018-05-14T08:28:28.848Z,20.75
2018-05-14T08:29:32.159Z,20.77
2018-05-14T08:30:35.488Z,20.77
2018-05-14T08:31:38.807Z,20.77
2018-05-14T08:32:42.285Z,20.78
2018-05-14T08:33:45.908Z,20.78
2018-05-14T08:34:49.223Z,20.75
2018-05-14T08:35:52.566Z,20.72
2018-05-14T08:36:55.880Z,20.70
2018-05-14T08:37:59.194Z,20.67
2018-05-14T08:39:02.547Z,20.66
2018-05-14T08:40:05.932Z,20.64
2018-05-14T08:41:09.208Z,20.63
2018-05-14T08:42:12.520Z,20.64
2018-05-14T08:43:15.854Z,20.66
2018-05-14T08:44:19.193Z,20.70
2018-05-14T08:45:22.562Z,20.77
2018-05-14T08:46:25.899Z,20.82
2018-05-14T08:47:29.205Z,20.85
2018-05-14T08:48:32.551Z,20.87
2018-05-14T08:49:35.892Z,20.91
2018-05-14T08:50:39.219Z,20.95
2018-05-14T08:51:42.543Z,20.99
2018-05-14T08:52:45.951Z,21.01
2018-05-14T08:53:49.204Z,21.02
2018-05-14T08:54:52.553Z,21.05
2018-05-14T08:55:55.856Z,21.10
2018-05-14T08:56:59.185Z,21.15
2018-05-14T08:58:02.507Z,21.20
2018-05-14T08:59:05.836Z,21.24
2018-05-14T09:00:09.186Z,21.32
2018-05-14T09:01:12.513Z,21.40
2018-05-14T09:02:15.822Z,21.48
2018-05-14T09:03:19.138Z,21.55
2018-05-14T09:04:22.472Z,21.60
2018-05-14T09:05:25.820Z,21.62
2018-05-14T09:06:29.122Z,21.63
2018-05-14T09:07:32.462Z,21.66
2018-05-14T09:08:35.788Z,21.71
2018-05-14T09:09:39.136Z,21.74
2018-05-14T09:10:42.481Z,21.77
2018-05-14T09:11:45.797Z,21.78
2018-05-14T09:12:49.160Z,21.79
2018-05-14T09:13:52.472Z,21.82
2018-05-14T09:14:55.786Z,21.88
2018-05-14T09:15:59.189Z,21.94
2018-05-14T09:17:02.489Z,21.97
2018-05-14T09:18:05.866Z,22.00
2018-05-14T09:19:09.360Z,22.02
2018-05-14T09:20:12.675Z,22.04
2018-05-14T09:21:16.025Z,22.04
2018-05-14T09:22:19.356Z,22.03
2018-05-14T09:23:22.705Z,22.03
2018-05-14T09:24:26.014Z,22.04
2018-05-14T09:25:29.401Z,22.04
2018-05-14T09:26:32.730Z,22.03
2018-05-14T09:27:36.048Z,22.01
2018-05-14T09:28:39.467Z,21.97
2018-05-14T09:29:42.803Z,21.96
2018-05-14T09:30:46.126Z,21.93
2018-05-14T09:31:49.495Z,21.90
2018-05-14T09:32:53.166Z,21.89
2018-05-14T09:33:56.494Z,21.86
2018-05-14T09:34:59.810Z,21.82
2018-05-14T09:36:03.152Z,21.79
2018-05-14T09:37:06.524Z,21.77
2018-05-14T09:38:09.828Z,21.76
2018-05-14T09:39:13.141Z,21.76
2018-05-14T09:40:16.456Z,21.78
2018-05-14T09:41:19.778Z,21.79
2018-05-14T09:42:23.151Z,21.80
2018-05-14T09:43:26.497Z,21.82
2018-05-14T09:44:29.860Z,21.85
2018-05-14T09:45:33.106Z,21.87
2018-05-14T09:46:36.508Z,21.89
2018-05-14T09:47:39.982Z,21.91
2018-05-14T09:48:43.300Z,21.94
2018-05-14T09:49:46.627Z,21.95
2018-05-14T09:50:49.968Z,21.97
2018-05-14T09:51:53.333Z,21.97
2018-05-14T09:52:56.697Z,21.97
2018-05-14T09:54:00.013Z,21.99
2018-05-14T09:55:03.329Z,21.99
2018-05-14T09:56:06.651Z,21.98
2018-05-14T09:57:09.972Z,21.97
2018-05-14T09:58:13.310Z,21.96
2018-05-14T09:59:16.623Z,21.94
2018-05-14T10:00:19.959Z,21.94
2018-05-14T10:01:23.274Z,21.93
2018-05-14T10:02:26.615Z,21.92
2018-05-14T10:03:30.106Z,21.92
2018-05-14T10:04:33.371Z,21.92
2018-05-14T10:05:36.694Z,21.90
2018-05-14T10:06:40.024Z,21.91
2018-05-14T10:07:43.426Z,21.91
2018-05-14T10:08:46.752Z,21.90
2018-05-14T10:09:50.079Z,21.89
2018-05-14T10:10:53.403Z,21.88
2018-05-14T10:11:56.736Z,21.87
2018-05-14T10:13:00.070Z,21.87
2018-05-14T10:14:03.497Z,21.87
2018-05-14T10:15:06.823Z,21.89
2018-05-14T10:16:10.237Z,21.89
2018-05-14T10:17:14.047Z,21.90
2018-05-14T10:18:17.396Z,21.89
2018-05-14T10:19:20.728Z,21.89
2018-05-14T10:20:24.087Z,21.89
2018-05-14T10:21:27.444Z,21.89
2018-05-14T10:22:30.745Z,21.91
2018-05-14T10:23:34.160Z,21.90
2018-05-14T10:24:37.588Z,21.90
2018-05-14T10:25:40.831Z,21.90
2018-05-14T10:26:44.146Z,21.90
2018-05-14T10:27:47.464Z,21.91
2018-05-14T10:28:50.779Z,21.92
2018-05-14T10:29:54.135Z,21.94
2018-05-14T10:30:57.471Z,21.96
2018-05-14T10:32:00.950Z,21.98
2018-05-14T10:33:04.402Z,22.01
2018-05-14T10:34:07.714Z,22.02
2018-05-14T10:35:11.050Z,22.04
2018-05-14T10:36:14.383Z,22.06
2018-05-14T10:37:17.695Z,22.07
2018-05-14T10:38:21.047Z,22.09
2018-05-14T10:39:24.371Z,22.11
2018-05-14T10:40:27.720Z,22.12
2018-05-14T10:41:31.031Z,22.13
2018-05-14T10:42:34.355Z,22.14
2018-05-14T10:43:37.675Z,22.16
2018-05-14T10:44:41.010Z,22.17
2018-05-14T10:45:44.346Z,22.18
2018-05-14T10:46:47.698Z,22.19
2018-05-14T10:47:51.014Z,22.21
2018-05-14T10:48:54.502Z,22.22
2018-05-14T10:49:57.814Z,22.24
2018-05-14T10:51:01.154Z,22.26
2018-05-14T10:52:04.473Z,22.28
2018-05-14T10:53:07.791Z,22.29
2018-05-14T10:54:11.128Z,22.30
2018-05-14T10:55:14.451Z,22.31
2018-05-14T10:56:17.799Z,22.31
2018-05-14T10:57:21.144Z,22.32
2018-05-14T10:58:24.479Z,22.33
2018-05-14T10:59:27.814Z,22.34
2018-05-14T11:00:31.153Z,22.34
2018-05-14T11:01:34.498Z,22.35
2018-05-14T11:02:37.810Z,22.35
2018-05-14T11:03:41.123Z,22.37
2018-05-14T11:04:44.472Z,22.39
2018-05-14T11:05:47.801Z,22.42
2018-05-14T11:06:51.161Z,22.43
2018-05-14T11:07:54.458Z,22.45
2018-05-14T11:08:57.797Z,22.47
2018-05-14T11:10:01.110Z,22.49
2018-05-14T11:11:04.490Z,22.51
2018-05-14T11:12:07.882Z,22.53
2018-05-14T11:13:11.207Z,22.55
2018-05-14T11:14:14.546Z,22.57
2018-05-14T11:15:18.041Z,22.60
2018-05-14T11:16:21.419Z,22.62
2018-05-14T11:17:24.758Z,22.64
2018-05-14T11:18:28.104Z,22.67
2018-05-14T11:19:31.473Z,22.70
2018-05-14T11:20:34.778Z,22.72
2018-05-14T11:21:38.150Z,22.74
2018-05-14T11:22:41.557Z,22.75
2018-05-14T11:23:44.871Z,22.76
2018-05-14T11:24:48.247Z,22.76
2018-05-14T11:25:51.580Z,22.78
2018-05-14T11:26:55.039Z,22.79
2018-05-14T11:27:58.383Z,22.80
2018-05-14T11:29:01.748Z,22.83
2018-05-14T11:30:05.093Z,22.84
2018-05-14T11:31:08.406Z,22.86
2018-05-14T11:32:11.719Z,22.87
2018-05-14T11:33:15.265Z,22.89
2018-05-14T11:34:18.610Z,22.91
2018-05-14T11:35:21.949Z,22.92
2018-05-14T11:36:25.282Z,22.93
2018-05-14T11:37:28.607Z,22.94
2018-05-14T11:38:31.967Z,22.96
2018-05-14T11:39:35.340Z,22.97
2018-05-14T11:40:38.654Z,22.99
2018-05-14T11:41:42.023Z,23.01
2018-05-14T11:42:45.396Z,23.02
2018-05-14T11:43:48.776Z,23.04
2018-05-14T11:44:52.112Z,23.06
2018-05-14T11:45:55.454Z,23.08
2018-05-14T11:46:58.781Z,23.11
2018-05-14T11:48:02.189Z,23.14
2018-05-14T11:49:05.569Z,23.15
2018-05-14T11:50:08.914Z,23.18
2018-05-14T11:51:12.248Z,23.20
2018-05-14T11:52:15.601Z,23.23
2018-05-14T11:53:18.920Z,23.25
2018-05-14T11:54:22.297Z,23.26
2018-05-14T11:55:25.617Z,23.28
2018-05-14T11:56:28.998Z,23.30
2018-05-14T11:57:32.340Z,23.32
2018-05-14T11:58:35.704Z,23.35
2018-05-14T11:59:39.161Z,23.36
2018-05-14T12:00:42.473Z,23.38
2018-05-14T12:01:45.875Z,23.38
2018-05-14T12:02:49.260Z,23.40
2018-05-14T12:03:52.697Z,23.42
2018-05-14T12:04:56.047Z,23.43
2018-05-14T12:05:59.392Z,23.45
2018-05-14T12:07:02.806Z,23.48
2018-05-14T12:08:06.123Z,23.49
2018-05-14T12:09:09.472Z,23.52
2018-05-14T12:10:13.000Z,23.54
2018-05-14T12:11:16.255Z,23.57
2018-05-14T12:12:19.583Z,23.59
2018-05-14T12:13:22.919Z,23.59
2018-05-14T12:14:26.475Z,23.60
2018-05-14T12:15:29.824Z,23.63
2018-05-14T12:16:33.158Z,23.64
2018-05-14T12:17:36.479Z,23.66
2018-05-14T12:18:39.894Z,23.69
2018-05-14T12:19:43.148Z,23.72
2018-05-14T12:20:46.482Z,23.74
2018-05-14T12:21:49.813Z,23.76
2018-05-14T12:22:53.137Z,23.78
2018-05-14T12:23:56.471Z,23.80
2018-05-14T12:24:59.836Z,23.82
2018-05-14T12:26:03.274Z,23.85
2018-05-14T12:27:07.950Z,23.86
2018-05-14T12:28:11.458Z,23.88
2018-05-14T12:29:14.800Z,23.91
2018-05-14T12:30:18.409Z,23.92
2018-05-14T12:31:21.903Z,23.94
2018-05-14T12:32:25.398Z,23.96
2018-05-14T12:33:28.986Z,23.98
2018-05-14T12:34:32.329Z,23.99
2018-05-14T12:35:35.647Z,24.00
2018-05-14T12:36:39.035Z,24.01
2018-05-14T12:37:42.364Z,24.03
2018-05-14T12:38:45.696Z,24.04
2018-05-14T12:39:49.022Z,24.06
2018-05-14T12:40:52.352Z,24.07
2018-05-14T12:41:55.699Z,24.10
2018-05-14T12:42:59.021Z,24.12
2018-05-14T12:44:02.354Z,24.15
2018-05-14T12:45:05.709Z,24.17
2018-05-14T12:46:09.077Z,24.18
2018-05-14T12:47:12.399Z,24.20
2018-05-14T12:48:15.774Z,24.21
2018-05-14T12:49:19.108Z,24.22
2018-05-14T12:50:22.430Z,24.24
2018-05-14T12:51:25.759Z,24.26
2018-05-14T12:52:29.116Z,24.28
2018-05-14T12:53:32.640Z,24.30
2018-05-14T12:54:35.946Z,24.32
2018-05-14T12:55:39.269Z,24.34
2018-05-14T12:56:42.583Z,24.34
2018-05-14T12:57:45.920Z,24.35
2018-05-14T12:58:49.270Z,24.38
2018-05-14T12:59:52.577Z,24.38
2018-05-14T13:00:55.892Z,24.39
2018-05-14T13:01:59.222Z,24.40
2018-05-14T13:03:02.669Z,24.42
2018-05-14T13:04:05.983Z,24.43
2018-05-14T13:05:09.322Z,24.45
2018-05-14T13:06:12.645Z,24.46
2018-05-14T13:07:15.961Z,24.48
2018-05-14T13:08:19.295Z,24.48
2018-05-14T13:09:22.666Z,24.49
2018-05-14T13:10:25.990Z,24.50
2018-05-14T13:11:29.308Z,24.52
2018-05-14T13:12:32.643Z,24.53
2018-05-14T13:13:35.985Z,24.54
2018-05-14T13:14:39.286Z,24.56
2018-05-14T13:15:42.973Z,24.56
2018-05-14T13:16:46.279Z,24.58
2018-05-14T13:17:49.594Z,24.59
2018-05-14T13:18:53.058Z,24.61
2018-05-14T13:19:56.512Z,24.60
2018-05-14T13:20:59.860Z,24.61
2018-05-14T13:22:03.163Z,24.63
2018-05-14T13:23:06.478Z,24.64
2018-05-14T13:24:09.855Z,24.66
2018-05-14T13:25:13.161Z,24.67
2018-05-14T13:26:16.550Z,24.68
2018-05-14T13:27:19.815Z,24.69
2018-05-14T13:28:23.142Z,24.70
2018-05-14T13:29:26.475Z,24.73
2018-05-14T13:30:29.784Z,24.73
2018-05-14T13:31:33.125Z,24.76
2018-05-14T13:32:36.426Z,24.78
2018-05-14T13:33:39.811Z,24.79
2018-05-14T13:34:43.234Z,24.81
2018-05-14T13:35:46.472Z,24.82
2018-05-14T13:36:49.950Z,24.83
2018-05-14T13:37:53.302Z,24.84
2018-05-14T13:38:56.655Z,24.86
2018-05-14T13:40:00.016Z,24.87